sensor_id;sensor_type;location;lat;lon;timestamp;P1;durP1;ratioP1;P2;durP2;ratioP2
71166;SDS011;58864;45.928;20.078;2022-08-06T00:00:22;7.97;;;2.23;;
71166;SDS011;58864;45.928;20.078;2022-08-06T00:02:47;9.00;;;2.40;;
71166;SDS011;58864;45.928;20.078;2022-08-06T00:05:11;5.40;;;2.03;;
71166;SDS011;58864;45.928;20.078;2022-08-06T00:07:42;10.03;;;2.10;;
71166;SDS011;58864;45.928;20.078;2022-08-06T00:10:06;6.63;;;2.33;;
71166;SDS011;58864;45.928;20.078;2022-08-06T00:12:32;7.85;;;2.30;;
71166;SDS011;58864;45.928;20.078;2022-08-06T00:15:00;7.65;;;2.10;;
71166;SDS011;58864;45.928;20.078;2022-08-06T00:17:25;6.13;;;2.30;;
71166;SDS011;58864;45.928;20.078;2022-08-06T00:19:50;8.43;;;2.22;;
71166;SDS011;58864;45.928;20.078;2022-08-06T00:22:15;8.73;;;2.72;;
71166;SDS011;58864;45.928;20.078;2022-08-06T00:24:39;7.57;;;2.73;;
71166;SDS011;58864;45.928;20.078;2022-08-06T00:27:03;6.37;;;2.37;;
71166;SDS011;58864;45.928;20.078;2022-08-06T00:29:28;6.27;;;2.43;;
71166;SDS011;58864;45.928;20.078;2022-08-06T00:31:52;5.68;;;2.17;;
71166;SDS011;58864;45.928;20.078;2022-08-06T00:34:17;7.37;;;2.00;;
71166;SDS011;58864;45.928;20.078;2022-08-06T00:36:41;5.90;;;2.10;;
71166;SDS011;58864;45.928;20.078;2022-08-06T00:39:06;7.37;;;2.30;;
71166;SDS011;58864;45.928;20.078;2022-08-06T00:41:31;10.13;;;2.63;;
71166;SDS011;58864;45.928;20.078;2022-08-06T00:43:56;7.15;;;2.70;;
71166;SDS011;58864;45.928;20.078;2022-08-06T00:46:25;7.53;;;2.42;;
71166;SDS011;58864;45.928;20.078;2022-08-06T00:48:50;7.43;;;2.30;;
71166;SDS011;58864;45.928;20.078;2022-08-06T00:51:15;7.73;;;2.60;;
71166;SDS011;58864;45.928;20.078;2022-08-06T00:53:39;6.63;;;2.72;;
71166;SDS011;58864;45.928;20.078;2022-08-06T00:56:04;9.60;;;2.23;;
71166;SDS011;58864;45.928;20.078;2022-08-06T00:58:29;7.32;;;2.45;;
71166;SDS011;58864;45.928;20.078;2022-08-06T01:00:53;7.07;;;2.10;;
71166;SDS011;58864;45.928;20.078;2022-08-06T01:03:18;7.25;;;2.42;;
71166;SDS011;58864;45.928;20.078;2022-08-06T01:05:43;5.13;;;2.30;;
71166;SDS011;58864;45.928;20.078;2022-08-06T01:08:07;7.75;;;2.35;;
71166;SDS011;58864;45.928;20.078;2022-08-06T01:10:32;7.67;;;2.50;;
71166;SDS011;58864;45.928;20.078;2022-08-06T01:12:56;10.23;;;2.40;;
71166;SDS011;58864;45.928;20.078;2022-08-06T01:15:21;5.53;;;2.20;;
71166;SDS011;58864;45.928;20.078;2022-08-06T01:18:04;5.88;;;2.40;;
71166;SDS011;58864;45.928;20.078;2022-08-06T01:26:51;6.30;;;2.60;;
71166;SDS011;58864;45.928;20.078;2022-08-06T01:29:22;8.65;;;2.40;;
71166;SDS011;58864;45.928;20.078;2022-08-06T01:31:54;8.75;;;2.55;;
71166;SDS011;58864;45.928;20.078;2022-08-06T01:34:30;6.93;;;2.20;;
71166;SDS011;58864;45.928;20.078;2022-08-06T01:36:59;6.10;;;2.70;;
71166;SDS011;58864;45.928;20.078;2022-08-06T01:39:44;5.97;;;2.40;;
71166;SDS011;58864;45.928;20.078;2022-08-06T01:42:10;6.03;;;2.25;;
71166;SDS011;58864;45.928;20.078;2022-08-06T01:44:37;6.13;;;2.35;;
71166;SDS011;58864;45.928;20.078;2022-08-06T01:47:05;5.25;;;1.92;;
71166;SDS011;58864;45.928;20.078;2022-08-06T01:49:32;9.67;;;2.67;;
71166;SDS011;58864;45.928;20.078;2022-08-06T01:51:59;6.18;;;2.65;;
71166;SDS011;58864;45.928;20.078;2022-08-06T01:54:24;5.35;;;2.20;;
71166;SDS011;58864;45.928;20.078;2022-08-06T01:56:50;8.23;;;3.28;;
71166;SDS011;58864;45.928;20.078;2022-08-06T01:59:17;5.90;;;2.22;;
71166;SDS011;58864;45.928;20.078;2022-08-06T02:01:46;10.00;;;2.30;;
71166;SDS011;58864;45.928;20.078;2022-08-06T02:04:12;8.27;;;2.78;;
71166;SDS011;58864;45.928;20.078;2022-08-06T02:06:39;6.55;;;2.72;;
71166;SDS011;58864;45.928;20.078;2022-08-06T02:09:05;5.40;;;2.40;;
71166;SDS011;58864;45.928;20.078;2022-08-06T02:11:32;7.15;;;2.95;;
71166;SDS011;58864;45.928;20.078;2022-08-06T02:13:59;7.00;;;2.40;;
71166;SDS011;58864;45.928;20.078;2022-08-06T02:16:24;10.65;;;2.80;;
71166;SDS011;58864;45.928;20.078;2022-08-06T02:18:51;7.57;;;2.50;;
71166;SDS011;58864;45.928;20.078;2022-08-06T02:21:18;8.20;;;2.17;;
71166;SDS011;58864;45.928;20.078;2022-08-06T02:23:43;6.25;;;2.30;;
71166;SDS011;58864;45.928;20.078;2022-08-06T02:26:09;6.10;;;2.50;;
71166;SDS011;58864;45.928;20.078;2022-08-06T02:28:36;7.35;;;2.53;;
71166;SDS011;58864;45.928;20.078;2022-08-06T02:31:01;8.52;;;2.50;;
71166;SDS011;58864;45.928;20.078;2022-08-06T02:33:26;5.27;;;2.10;;
71166;SDS011;58864;45.928;20.078;2022-08-06T02:40:53;5.93;;;2.53;;
71166;SDS011;58864;45.928;20.078;2022-08-06T02:43:22;7.67;;;2.40;;
71166;SDS011;58864;45.928;20.078;2022-08-06T02:48:23;8.37;;;2.70;;
71166;SDS011;58864;45.928;20.078;2022-08-06T02:50:50;7.22;;;2.70;;
71166;SDS011;58864;45.928;20.078;2022-08-06T02:53:16;6.70;;;2.38;;
71166;SDS011;58864;45.928;20.078;2022-08-06T02:55:45;6.90;;;2.75;;
71166;SDS011;58864;45.928;20.078;2022-08-06T02:58:12;6.57;;;2.83;;
71166;SDS011;58864;45.928;20.078;2022-08-06T03:00:40;7.23;;;3.03;;
71166;SDS011;58864;45.928;20.078;2022-08-06T03:03:06;9.55;;;2.92;;
71166;SDS011;58864;45.928;20.078;2022-08-06T03:05:34;7.80;;;2.60;;
71166;SDS011;58864;45.928;20.078;2022-08-06T03:08:01;7.13;;;2.50;;
71166;SDS011;58864;45.928;20.078;2022-08-06T03:10:26;5.70;;;2.22;;
71166;SDS011;58864;45.928;20.078;2022-08-06T03:12:51;7.33;;;2.67;;
71166;SDS011;58864;45.928;20.078;2022-08-06T03:15:17;7.13;;;2.95;;
71166;SDS011;58864;45.928;20.078;2022-08-06T03:17:42;7.00;;;3.22;;
71166;SDS011;58864;45.928;20.078;2022-08-06T03:20:07;8.38;;;2.90;;
71166;SDS011;58864;45.928;20.078;2022-08-06T03:22:32;5.43;;;2.40;;
71166;SDS011;58864;45.928;20.078;2022-08-06T03:24:59;10.37;;;3.37;;
71166;SDS011;58864;45.928;20.078;2022-08-06T03:27:24;8.02;;;2.80;;
71166;SDS011;58864;45.928;20.078;2022-08-06T03:29:49;9.40;;;2.97;;
71166;SDS011;58864;45.928;20.078;2022-08-06T03:32:14;9.53;;;3.00;;
71166;SDS011;58864;45.928;20.078;2022-08-06T03:34:39;8.45;;;3.08;;
71166;SDS011;58864;45.928;20.078;2022-08-06T03:37:05;9.05;;;3.05;;
71166;SDS011;58864;45.928;20.078;2022-08-06T03:39:31;7.70;;;2.80;;
71166;SDS011;58864;45.928;20.078;2022-08-06T03:41:56;9.05;;;2.88;;
71166;SDS011;58864;45.928;20.078;2022-08-06T03:44:21;6.40;;;3.10;;
71166;SDS011;58864;45.928;20.078;2022-08-06T03:46:57;12.05;;;2.92;;
71166;SDS011;58864;45.928;20.078;2022-08-06T03:49:26;6.63;;;3.08;;
71166;SDS011;58864;45.928;20.078;2022-08-06T03:51:53;7.90;;;3.28;;
71166;SDS011;58864;45.928;20.078;2022-08-06T03:54:22;7.97;;;3.00;;
71166;SDS011;58864;45.928;20.078;2022-08-06T03:56:50;11.93;;;3.50;;
71166;SDS011;58864;45.928;20.078;2022-08-06T03:59:16;9.10;;;3.83;;
71166;SDS011;58864;45.928;20.078;2022-08-06T04:01:41;11.95;;;3.83;;
71166;SDS011;58864;45.928;20.078;2022-08-06T04:04:07;11.98;;;3.90;;
71166;SDS011;58864;45.928;20.078;2022-08-06T04:06:32;7.70;;;3.10;;
71166;SDS011;58864;45.928;20.078;2022-08-06T04:08:57;7.30;;;3.40;;
71166;SDS011;58864;45.928;20.078;2022-08-06T04:11:22;10.93;;;3.83;;
71166;SDS011;58864;45.928;20.078;2022-08-06T04:13:47;13.88;;;4.25;;
71166;SDS011;58864;45.928;20.078;2022-08-06T04:16:12;9.70;;;3.57;;
71166;SDS011;58864;45.928;20.078;2022-08-06T04:18:37;9.18;;;3.88;;
71166;SDS011;58864;45.928;20.078;2022-08-06T04:21:04;7.97;;;3.47;;
71166;SDS011;58864;45.928;20.078;2022-08-06T04:23:30;10.37;;;3.87;;
71166;SDS011;58864;45.928;20.078;2022-08-06T04:25:55;8.98;;;3.20;;
71166;SDS011;58864;45.928;20.078;2022-08-06T04:28:21;9.53;;;3.50;;
71166;SDS011;58864;45.928;20.078;2022-08-06T04:30:48;9.63;;;3.30;;
71166;SDS011;58864;45.928;20.078;2022-08-06T04:33:14;11.55;;;3.53;;
71166;SDS011;58864;45.928;20.078;2022-08-06T04:35:40;7.22;;;3.28;;
71166;SDS011;58864;45.928;20.078;2022-08-06T04:38:06;12.57;;;3.65;;
71166;SDS011;58864;45.928;20.078;2022-08-06T04:40:31;12.93;;;3.47;;
71166;SDS011;58864;45.928;20.078;2022-08-06T04:42:55;9.70;;;3.92;;
71166;SDS011;58864;45.928;20.078;2022-08-06T04:45:20;10.48;;;4.13;;
71166;SDS011;58864;45.928;20.078;2022-08-06T04:47:45;12.77;;;3.93;;
71166;SDS011;58864;45.928;20.078;2022-08-06T04:50:10;10.98;;;3.40;;
71166;SDS011;58864;45.928;20.078;2022-08-06T04:52:34;11.23;;;3.80;;
71166;SDS011;58864;45.928;20.078;2022-08-06T04:54:59;8.20;;;3.45;;
71166;SDS011;58864;45.928;20.078;2022-08-06T04:57:23;11.43;;;4.20;;
71166;SDS011;58864;45.928;20.078;2022-08-06T04:59:48;12.33;;;4.43;;
71166;SDS011;58864;45.928;20.078;2022-08-06T05:02:12;18.52;;;7.63;;
71166;SDS011;58864;45.928;20.078;2022-08-06T05:04:37;19.70;;;9.03;;
71166;SDS011;58864;45.928;20.078;2022-08-06T05:09:30;17.40;;;6.32;;
71166;SDS011;58864;45.928;20.078;2022-08-06T05:12:02;14.40;;;6.57;;
71166;SDS011;58864;45.928;20.078;2022-08-06T05:14:30;11.82;;;5.32;;
71166;SDS011;58864;45.928;20.078;2022-08-06T05:17:10;14.15;;;5.07;;
71166;SDS011;58864;45.928;20.078;2022-08-06T05:19:41;26.40;;;5.73;;
71166;SDS011;58864;45.928;20.078;2022-08-06T05:22:07;12.73;;;4.47;;
71166;SDS011;58864;45.928;20.078;2022-08-06T05:24:33;9.43;;;3.75;;
71166;SDS011;58864;45.928;20.078;2022-08-06T05:26:57;12.07;;;3.28;;
71166;SDS011;58864;45.928;20.078;2022-08-06T05:29:22;8.53;;;3.13;;
71166;SDS011;58864;45.928;20.078;2022-08-06T05:31:46;8.53;;;3.37;;
71166;SDS011;58864;45.928;20.078;2022-08-06T05:34:11;8.52;;;2.40;;
71166;SDS011;58864;45.928;20.078;2022-08-06T05:36:36;8.73;;;2.90;;
71166;SDS011;58864;45.928;20.078;2022-08-06T05:39:02;8.83;;;2.70;;
71166;SDS011;58864;45.928;20.078;2022-08-06T05:41:27;12.85;;;2.63;;
71166;SDS011;58864;45.928;20.078;2022-08-06T05:43:54;7.40;;;2.50;;
71166;SDS011;58864;45.928;20.078;2022-08-06T05:46:22;8.37;;;2.67;;
71166;SDS011;58864;45.928;20.078;2022-08-06T05:48:59;7.03;;;2.90;;
71166;SDS011;58864;45.928;20.078;2022-08-06T05:57:11;6.40;;;2.73;;
71166;SDS011;58864;45.928;20.078;2022-08-06T05:59:39;8.73;;;2.70;;
71166;SDS011;58864;45.928;20.078;2022-08-06T06:02:05;6.95;;;3.00;;
71166;SDS011;58864;45.928;20.078;2022-08-06T06:04:31;8.65;;;2.75;;
71166;SDS011;58864;45.928;20.078;2022-08-06T06:06:55;8.30;;;2.90;;
71166;SDS011;58864;45.928;20.078;2022-08-06T06:09:20;5.80;;;2.67;;
71166;SDS011;58864;45.928;20.078;2022-08-06T06:11:45;8.20;;;2.92;;
71166;SDS011;58864;45.928;20.078;2022-08-06T06:16:55;9.38;;;2.97;;
71166;SDS011;58864;45.928;20.078;2022-08-06T06:19:55;5.70;;;2.70;;
71166;SDS011;58864;45.928;20.078;2022-08-06T06:22:23;5.35;;;2.58;;
71166;SDS011;58864;45.928;20.078;2022-08-06T06:24:58;6.53;;;2.40;;
71166;SDS011;58864;45.928;20.078;2022-08-06T06:27:41;9.55;;;2.50;;
71166;SDS011;58864;45.928;20.078;2022-08-06T06:30:13;7.00;;;2.50;;
71166;SDS011;58864;45.928;20.078;2022-08-06T06:32:45;5.40;;;2.13;;
71166;SDS011;58864;45.928;20.078;2022-08-06T06:40:43;5.95;;;1.90;;
71166;SDS011;58864;45.928;20.078;2022-08-06T06:43:27;7.18;;;2.20;;
71166;SDS011;58864;45.928;20.078;2022-08-06T06:46:01;5.07;;;2.10;;
71166;SDS011;58864;45.928;20.078;2022-08-06T06:50:59;6.85;;;2.38;;
71166;SDS011;58864;45.928;20.078;2022-08-06T06:53:30;5.05;;;2.30;;
71166;SDS011;58864;45.928;20.078;2022-08-06T06:55:58;5.05;;;2.10;;
71166;SDS011;58864;45.928;20.078;2022-08-06T06:58:33;4.40;;;2.00;;
71166;SDS011;58864;45.928;20.078;2022-08-06T07:01:01;5.10;;;2.28;;
71166;SDS011;58864;45.928;20.078;2022-08-06T07:03:28;7.25;;;2.53;;
71166;SDS011;58864;45.928;20.078;2022-08-06T07:05:54;5.68;;;2.50;;
71166;SDS011;58864;45.928;20.078;2022-08-06T07:08:19;5.40;;;2.17;;
71166;SDS011;58864;45.928;20.078;2022-08-06T07:10:44;8.60;;;2.30;;
71166;SDS011;58864;45.928;20.078;2022-08-06T07:13:11;5.32;;;2.33;;
71166;SDS011;58864;45.928;20.078;2022-08-06T07:15:36;7.45;;;2.80;;
71166;SDS011;58864;45.928;20.078;2022-08-06T07:18:02;6.97;;;2.30;;
71166;SDS011;58864;45.928;20.078;2022-08-06T07:20:28;6.15;;;2.47;;
71166;SDS011;58864;45.928;20.078;2022-08-06T07:22:55;5.97;;;2.30;;
71166;SDS011;58864;45.928;20.078;2022-08-06T07:25:20;7.30;;;2.10;;
71166;SDS011;58864;45.928;20.078;2022-08-06T07:27:45;6.82;;;2.45;;
71166;SDS011;58864;45.928;20.078;2022-08-06T07:30:14;5.15;;;2.17;;
71166;SDS011;58864;45.928;20.078;2022-08-06T07:32:40;4.80;;;2.20;;
71166;SDS011;58864;45.928;20.078;2022-08-06T07:35:07;6.10;;;2.40;;
71166;SDS011;58864;45.928;20.078;2022-08-06T07:37:32;6.55;;;2.55;;
71166;SDS011;58864;45.928;20.078;2022-08-06T07:39:59;5.65;;;2.50;;
71166;SDS011;58864;45.928;20.078;2022-08-06T07:42:24;4.75;;;1.95;;
71166;SDS011;58864;45.928;20.078;2022-08-06T07:44:51;5.25;;;1.98;;
71166;SDS011;58864;45.928;20.078;2022-08-06T07:47:18;4.93;;;2.10;;
71166;SDS011;58864;45.928;20.078;2022-08-06T07:49:44;8.05;;;2.10;;
71166;SDS011;58864;45.928;20.078;2022-08-06T07:52:11;5.60;;;2.13;;
71166;SDS011;58864;45.928;20.078;2022-08-06T07:54:38;4.40;;;2.03;;
71166;SDS011;58864;45.928;20.078;2022-08-06T07:57:03;4.10;;;1.60;;
71166;SDS011;58864;45.928;20.078;2022-08-06T07:59:30;5.33;;;2.00;;
71166;SDS011;58864;45.928;20.078;2022-08-06T08:01:54;4.07;;;1.90;;
71166;SDS011;58864;45.928;20.078;2022-08-06T08:04:19;4.65;;;2.30;;
71166;SDS011;58864;45.928;20.078;2022-08-06T08:07:04;4.50;;;2.07;;
71166;SDS011;58864;45.928;20.078;2022-08-06T08:09:29;6.50;;;2.00;;
71166;SDS011;58864;45.928;20.078;2022-08-06T08:11:54;5.13;;;2.33;;
71166;SDS011;58864;45.928;20.078;2022-08-06T08:14:20;7.68;;;2.75;;
71166;SDS011;58864;45.928;20.078;2022-08-06T08:16:46;4.33;;;1.93;;
71166;SDS011;58864;45.928;20.078;2022-08-06T08:19:27;5.05;;;2.30;;
71166;SDS011;58864;45.928;20.078;2022-08-06T08:21:58;5.72;;;2.30;;
71166;SDS011;58864;45.928;20.078;2022-08-06T08:24:23;6.22;;;2.65;;
71166;SDS011;58864;45.928;20.078;2022-08-06T08:26:48;5.20;;;2.33;;
71166;SDS011;58864;45.928;20.078;2022-08-06T08:29:12;5.97;;;2.10;;
71166;SDS011;58864;45.928;20.078;2022-08-06T08:31:37;4.80;;;2.30;;
71166;SDS011;58864;45.928;20.078;2022-08-06T08:34:02;4.77;;;2.30;;
71166;SDS011;58864;45.928;20.078;2022-08-06T08:36:28;6.78;;;2.25;;
71166;SDS011;58864;45.928;20.078;2022-08-06T08:38:52;5.53;;;2.10;;
71166;SDS011;58864;45.928;20.078;2022-08-06T08:41:21;4.82;;;2.30;;
71166;SDS011;58864;45.928;20.078;2022-08-06T08:43:55;4.50;;;2.20;;
71166;SDS011;58864;45.928;20.078;2022-08-06T08:46:21;4.63;;;2.30;;
71166;SDS011;58864;45.928;20.078;2022-08-06T08:48:46;5.63;;;2.33;;
71166;SDS011;58864;45.928;20.078;2022-08-06T08:51:11;4.83;;;1.90;;
71166;SDS011;58864;45.928;20.078;2022-08-06T08:53:37;5.05;;;2.17;;
71166;SDS011;58864;45.928;20.078;2022-08-06T08:56:19;5.03;;;2.25;;
71166;SDS011;58864;45.928;20.078;2022-08-06T08:58:44;5.88;;;2.40;;
71166;SDS011;58864;45.928;20.078;2022-08-06T09:01:09;4.33;;;2.00;;
71166;SDS011;58864;45.928;20.078;2022-08-06T09:03:39;5.03;;;2.42;;
71166;SDS011;58864;45.928;20.078;2022-08-06T09:06:04;4.78;;;2.47;;
71166;SDS011;58864;45.928;20.078;2022-08-06T09:08:29;4.70;;;2.35;;
71166;SDS011;58864;45.928;20.078;2022-08-06T09:10:54;4.37;;;2.03;;
71166;SDS011;58864;45.928;20.078;2022-08-06T09:13:19;4.70;;;2.00;;
71166;SDS011;58864;45.928;20.078;2022-08-06T09:15:44;4.63;;;2.27;;
71166;SDS011;58864;45.928;20.078;2022-08-06T09:18:08;6.30;;;1.95;;
71166;SDS011;58864;45.928;20.078;2022-08-06T09:20:33;4.80;;;2.10;;
71166;SDS011;58864;45.928;20.078;2022-08-06T09:22:58;5.95;;;2.53;;
71166;SDS011;58864;45.928;20.078;2022-08-06T09:25:34;7.97;;;2.55;;
71166;SDS011;58864;45.928;20.078;2022-08-06T09:28:43;6.07;;;2.80;;
71166;SDS011;58864;45.928;20.078;2022-08-06T09:31:09;4.60;;;2.50;;
71166;SDS011;58864;45.928;20.078;2022-08-06T09:33:40;4.30;;;2.15;;
71166;SDS011;58864;45.928;20.078;2022-08-06T09:36:08;4.47;;;2.38;;
71166;SDS011;58864;45.928;20.078;2022-08-06T09:38:54;7.80;;;2.45;;
71166;SDS011;58864;45.928;20.078;2022-08-06T09:41:22;5.55;;;2.40;;
71166;SDS011;58864;45.928;20.078;2022-08-06T09:43:48;5.17;;;2.60;;
71166;SDS011;58864;45.928;20.078;2022-08-06T09:46:16;6.07;;;2.60;;
71166;SDS011;58864;45.928;20.078;2022-08-06T09:51:36;5.30;;;2.70;;
71166;SDS011;58864;45.928;20.078;2022-08-06T09:54:02;7.00;;;2.60;;
71166;SDS011;58864;45.928;20.078;2022-08-06T09:56:27;4.60;;;2.50;;
71166;SDS011;58864;45.928;20.078;2022-08-06T09:58:59;4.95;;;2.47;;
71166;SDS011;58864;45.928;20.078;2022-08-06T10:01:25;5.32;;;3.00;;
71166;SDS011;58864;45.928;20.078;2022-08-06T10:03:50;5.15;;;2.55;;
71166;SDS011;58864;45.928;20.078;2022-08-06T10:06:16;4.77;;;2.57;;
71166;SDS011;58864;45.928;20.078;2022-08-06T10:08:44;8.70;;;2.70;;
71166;SDS011;58864;45.928;20.078;2022-08-06T10:11:09;6.15;;;2.63;;
71166;SDS011;58864;45.928;20.078;2022-08-06T10:13:34;6.37;;;2.70;;
71166;SDS011;58864;45.928;20.078;2022-08-06T10:16:00;5.78;;;2.30;;
71166;SDS011;58864;45.928;20.078;2022-08-06T10:18:45;4.50;;;2.30;;
71166;SDS011;58864;45.928;20.078;2022-08-06T10:21:11;6.10;;;2.77;;
71166;SDS011;58864;45.928;20.078;2022-08-06T10:23:39;5.80;;;2.63;;
71166;SDS011;58864;45.928;20.078;2022-08-06T10:26:05;5.40;;;2.65;;
71166;SDS011;58864;45.928;20.078;2022-08-06T10:28:35;6.90;;;2.60;;
71166;SDS011;58864;45.928;20.078;2022-08-06T10:31:02;5.88;;;2.60;;
71166;SDS011;58864;45.928;20.078;2022-08-06T10:33:28;4.63;;;2.40;;
71166;SDS011;58864;45.928;20.078;2022-08-06T10:35:58;5.40;;;2.60;;
71166;SDS011;58864;45.928;20.078;2022-08-06T10:38:25;5.10;;;2.40;;
71166;SDS011;58864;45.928;20.078;2022-08-06T10:40:51;4.68;;;2.35;;
71166;SDS011;58864;45.928;20.078;2022-08-06T10:43:16;4.18;;;2.28;;
71166;SDS011;58864;45.928;20.078;2022-08-06T10:45:41;4.83;;;2.50;;
71166;SDS011;58864;45.928;20.078;2022-08-06T10:48:06;4.40;;;2.35;;
71166;SDS011;58864;45.928;20.078;2022-08-06T10:50:31;6.27;;;2.80;;
71166;SDS011;58864;45.928;20.078;2022-08-06T10:52:56;5.82;;;2.50;;
71166;SDS011;58864;45.928;20.078;2022-08-06T10:55:22;5.40;;;2.15;;
71166;SDS011;58864;45.928;20.078;2022-08-06T10:57:46;4.78;;;2.50;;
71166;SDS011;58864;45.928;20.078;2022-08-06T11:00:11;6.70;;;2.73;;
71166;SDS011;58864;45.928;20.078;2022-08-06T11:02:38;5.63;;;2.60;;
71166;SDS011;58864;45.928;20.078;2022-08-06T11:05:29;6.82;;;2.70;;
71166;SDS011;58864;45.928;20.078;2022-08-06T11:11:09;4.77;;;2.40;;
71166;SDS011;58864;45.928;20.078;2022-08-06T11:13:30;5.07;;;2.72;;
71166;SDS011;58864;45.928;20.078;2022-08-06T11:15:57;4.90;;;2.58;;
71166;SDS011;58864;45.928;20.078;2022-08-06T11:18:22;5.13;;;2.63;;
71166;SDS011;58864;45.928;20.078;2022-08-06T11:20:47;4.65;;;2.55;;
71166;SDS011;58864;45.928;20.078;2022-08-06T11:25:44;5.73;;;2.97;;
71166;SDS011;58864;45.928;20.078;2022-08-06T11:28:19;5.32;;;2.80;;
71166;SDS011;58864;45.928;20.078;2022-08-06T11:31:05;4.60;;;2.38;;
71166;SDS011;58864;45.928;20.078;2022-08-06T11:36:00;5.20;;;2.60;;
71166;SDS011;58864;45.928;20.078;2022-08-06T11:41:16;4.68;;;2.40;;
71166;SDS011;58864;45.928;20.078;2022-08-06T11:46:23;4.70;;;2.70;;
71166;SDS011;58864;45.928;20.078;2022-08-06T11:51:40;6.60;;;2.72;;
71166;SDS011;58864;45.928;20.078;2022-08-06T11:59:26;4.70;;;2.50;;
71166;SDS011;58864;45.928;20.078;2022-08-06T12:01:52;5.72;;;3.10;;
71166;SDS011;58864;45.928;20.078;2022-08-06T12:07:18;4.80;;;2.80;;
71166;SDS011;58864;45.928;20.078;2022-08-06T12:10:00;5.15;;;2.80;;
71166;SDS011;58864;45.928;20.078;2022-08-06T12:12:37;5.28;;;2.90;;
71166;SDS011;58864;45.928;20.078;2022-08-06T12:17:37;6.25;;;3.08;;
71166;SDS011;58864;45.928;20.078;2022-08-06T12:20:41;5.53;;;2.50;;
71166;SDS011;58864;45.928;20.078;2022-08-06T12:23:07;5.53;;;2.70;;
71166;SDS011;58864;45.928;20.078;2022-08-06T12:25:37;5.50;;;2.88;;
71166;SDS011;58864;45.928;20.078;2022-08-06T12:28:02;4.82;;;2.47;;
71166;SDS011;58864;45.928;20.078;2022-08-06T12:30:37;6.40;;;2.63;;
71166;SDS011;58864;45.928;20.078;2022-08-06T12:33:05;6.10;;;2.70;;
71166;SDS011;58864;45.928;20.078;2022-08-06T12:35:32;4.93;;;2.80;;
71166;SDS011;58864;45.928;20.078;2022-08-06T12:37:56;6.82;;;2.50;;
71166;SDS011;58864;45.928;20.078;2022-08-06T12:40:21;7.13;;;2.80;;
71166;SDS011;58864;45.928;20.078;2022-08-06T12:42:50;5.68;;;2.95;;
71166;SDS011;58864;45.928;20.078;2022-08-06T12:45:22;4.47;;;2.33;;
71166;SDS011;58864;45.928;20.078;2022-08-06T12:47:57;4.45;;;2.72;;
71166;SDS011;58864;45.928;20.078;2022-08-06T12:50:22;5.30;;;2.70;;
71166;SDS011;58864;45.928;20.078;2022-08-06T12:55:31;4.70;;;2.70;;
71166;SDS011;58864;45.928;20.078;2022-08-06T12:57:59;6.35;;;2.60;;
71166;SDS011;58864;45.928;20.078;2022-08-06T13:00:24;4.78;;;2.83;;
71166;SDS011;58864;45.928;20.078;2022-08-06T13:02:49;4.60;;;2.67;;
71166;SDS011;58864;45.928;20.078;2022-08-06T13:05:13;6.63;;;2.70;;
71166;SDS011;58864;45.928;20.078;2022-08-06T13:07:38;5.00;;;2.70;;
71166;SDS011;58864;45.928;20.078;2022-08-06T13:10:08;5.43;;;3.20;;
71166;SDS011;58864;45.928;20.078;2022-08-06T13:12:42;5.35;;;2.85;;
71166;SDS011;58864;45.928;20.078;2022-08-06T13:15:14;5.83;;;2.77;;
71166;SDS011;58864;45.928;20.078;2022-08-06T13:24:33;4.53;;;2.60;;
71166;SDS011;58864;45.928;20.078;2022-08-06T13:26:57;6.50;;;2.90;;
71166;SDS011;58864;45.928;20.078;2022-08-06T13:29:23;5.22;;;2.80;;
71166;SDS011;58864;45.928;20.078;2022-08-06T13:31:57;6.17;;;2.70;;
71166;SDS011;58864;45.928;20.078;2022-08-06T13:34:23;5.60;;;3.10;;
71166;SDS011;58864;45.928;20.078;2022-08-06T13:36:57;5.90;;;2.67;;
71166;SDS011;58864;45.928;20.078;2022-08-06T13:42:00;4.95;;;2.78;;
71166;SDS011;58864;45.928;20.078;2022-08-06T13:44:36;5.80;;;3.00;;
71166;SDS011;58864;45.928;20.078;2022-08-06T13:47:02;5.85;;;2.78;;
71166;SDS011;58864;45.928;20.078;2022-08-06T13:49:26;4.63;;;2.40;;
71166;SDS011;58864;45.928;20.078;2022-08-06T13:51:51;4.97;;;2.87;;
71166;SDS011;58864;45.928;20.078;2022-08-06T13:54:16;4.78;;;2.83;;
71166;SDS011;58864;45.928;20.078;2022-08-06T13:56:40;8.83;;;3.07;;
71166;SDS011;58864;45.928;20.078;2022-08-06T13:59:05;5.17;;;3.13;;
71166;SDS011;58864;45.928;20.078;2022-08-06T14:01:29;5.80;;;2.77;;
71166;SDS011;58864;45.928;20.078;2022-08-06T14:03:54;6.30;;;3.27;;
71166;SDS011;58864;45.928;20.078;2022-08-06T14:06:18;6.27;;;3.10;;
71166;SDS011;58864;45.928;20.078;2022-08-06T14:08:43;5.47;;;3.07;;
71166;SDS011;58864;45.928;20.078;2022-08-06T14:11:08;5.88;;;2.65;;
71166;SDS011;58864;45.928;20.078;2022-08-06T14:13:32;4.73;;;2.70;;
71166;SDS011;58864;45.928;20.078;2022-08-06T14:15:57;4.80;;;2.80;;
71166;SDS011;58864;45.928;20.078;2022-08-06T14:18:24;8.55;;;3.28;;
71166;SDS011;58864;45.928;20.078;2022-08-06T14:20:49;4.55;;;2.60;;
71166;SDS011;58864;45.928;20.078;2022-08-06T14:23:13;4.70;;;2.80;;
71166;SDS011;58864;45.928;20.078;2022-08-06T14:25:38;5.17;;;2.90;;
71166;SDS011;58864;45.928;20.078;2022-08-06T14:28:03;5.87;;;2.83;;
71166;SDS011;58864;45.928;20.078;2022-08-06T14:30:28;7.70;;;2.90;;
71166;SDS011;58864;45.928;20.078;2022-08-06T14:32:53;4.73;;;2.67;;
71166;SDS011;58864;45.928;20.078;2022-08-06T14:35:18;5.55;;;3.10;;
71166;SDS011;58864;45.928;20.078;2022-08-06T14:37:43;6.18;;;3.03;;
71166;SDS011;58864;45.928;20.078;2022-08-06T14:40:08;6.10;;;2.80;;
71166;SDS011;58864;45.928;20.078;2022-08-06T14:42:33;7.78;;;2.90;;
71166;SDS011;58864;45.928;20.078;2022-08-06T14:45:16;4.97;;;2.90;;
71166;SDS011;58864;45.928;20.078;2022-08-06T14:47:41;7.03;;;3.10;;
71166;SDS011;58864;45.928;20.078;2022-08-06T14:50:05;5.57;;;3.28;;
71166;SDS011;58864;45.928;20.078;2022-08-06T14:52:31;5.88;;;2.50;;
71166;SDS011;58864;45.928;20.078;2022-08-06T14:54:55;7.73;;;3.23;;
71166;SDS011;58864;45.928;20.078;2022-08-06T14:57:20;5.27;;;2.90;;
71166;SDS011;58864;45.928;20.078;2022-08-06T14:59:44;5.70;;;2.63;;
71166;SDS011;58864;45.928;20.078;2022-08-06T15:02:09;6.60;;;3.10;;
71166;SDS011;58864;45.928;20.078;2022-08-06T15:04:34;5.63;;;3.00;;
71166;SDS011;58864;45.928;20.078;2022-08-06T15:06:58;5.00;;;3.10;;
71166;SDS011;58864;45.928;20.078;2022-08-06T15:09:23;6.97;;;2.90;;
71166;SDS011;58864;45.928;20.078;2022-08-06T15:11:48;6.57;;;2.93;;
71166;SDS011;58864;45.928;20.078;2022-08-06T15:14:12;5.53;;;3.30;;
71166;SDS011;58864;45.928;20.078;2022-08-06T15:16:37;8.90;;;3.23;;
71166;SDS011;58864;45.928;20.078;2022-08-06T15:19:02;5.78;;;2.95;;
71166;SDS011;58864;45.928;20.078;2022-08-06T15:21:26;4.90;;;3.00;;
71166;SDS011;58864;45.928;20.078;2022-08-06T15:23:51;4.63;;;2.85;;
71166;SDS011;58864;45.928;20.078;2022-08-06T15:26:17;6.03;;;3.00;;
71166;SDS011;58864;45.928;20.078;2022-08-06T15:28:42;6.68;;;3.08;;
71166;SDS011;58864;45.928;20.078;2022-08-06T15:31:06;4.80;;;3.00;;
71166;SDS011;58864;45.928;20.078;2022-08-06T15:33:34;5.20;;;2.80;;
71166;SDS011;58864;45.928;20.078;2022-08-06T15:35:59;7.07;;;3.47;;
71166;SDS011;58864;45.928;20.078;2022-08-06T15:38:24;7.80;;;3.08;;
71166;SDS011;58864;45.928;20.078;2022-08-06T15:40:49;6.07;;;3.28;;
71166;SDS011;58864;45.928;20.078;2022-08-06T15:43:14;5.33;;;3.13;;
71166;SDS011;58864;45.928;20.078;2022-08-06T15:45:38;4.90;;;2.80;;
71166;SDS011;58864;45.928;20.078;2022-08-06T15:48:03;6.03;;;3.03;;